sensor_id;sensor_type;location;lat;lon;timestamp;temperature;humidity
14783;DHT22;7483;50.498;12.138;2022-09-12T00:00:22;13.30;99.90
14783;DHT22;7483;50.498;12.138;2022-09-12T00:02:51;13.30;99.90
14783;DHT22;7483;50.498;12.138;2022-09-12T00:05:20;13.30;99.90
14783;DHT22;7483;50.498;12.138;2022-09-12T00:07:48;13.30;99.90
14783;DHT22;7483;50.498;12.138;2022-09-12T00:10:16;13.20;99.90
14783;DHT22;7483;50.498;12.138;2022-09-12T00:12:44;13.10;99.90
14783;DHT22;7483;50.498;12.138;2022-09-12T00:15:13;13.10;99.90
14783;DHT22;7483;50.498;12.138;2022-09-12T00:17:41;13.10;99.90
14783;DHT22;7483;50.498;12.138;2022-09-12T00:20:10;13.10;99.90
14783;DHT22;7483;50.498;12.138;2022-09-12T00:22:37;13.00;99.90
14783;DHT22;7483;50.498;12.138;2022-09-12T00:25:06;13.00;99.90
14783;DHT22;7483;50.498;12.138;2022-09-12T00:27:34;13.00;99.90
14783;DHT22;7483;50.498;12.138;2022-09-12T00:30:03;13.10;99.90
14783;DHT22;7483;50.498;12.138;2022-09-12T00:32:33;13.00;99.90
14783;DHT22;7483;50.498;12.138;2022-09-12T00:35:00;13.00;99.90
14783;DHT22;7483;50.498;12.138;2022-09-12T00:37:29;13.00;99.90
14783;DHT22;7483;50.498;12.138;2022-09-12T00:39:57;12.90;99.90
14783;DHT22;7483;50.498;12.138;2022-09-12T00:42:25;12.90;99.90
14783;DHT22;7483;50.498;12.138;2022-09-12T00:44:52;12.90;99.90
14783;DHT22;7483;50.498;12.138;2022-09-12T00:47:23;12.90;99.90
14783;DHT22;7483;50.498;12.138;2022-09-12T00:49:58;13.00;99.90
14783;DHT22;7483;50.498;12.138;2022-09-12T00:52:30;13.00;99.90
14783;DHT22;7483;50.498;12.138;2022-09-12T00:55:02;12.80;99.90
14783;DHT22;7483;50.498;12.138;2022-09-12T00:57:34;12.70;99.90
14783;DHT22;7483;50.498;12.138;2022-09-12T01:00:07;12.60;99.90
14783;DHT22;7483;50.498;12.138;2022-09-12T01:02:39;12.50;99.90
14783;DHT22;7483;50.498;12.138;2022-09-12T01:05:09;12.60;99.90
14783;DHT22;7483;50.498;12.138;2022-09-12T01:07:37;12.60;99.90
14783;DHT22;7483;50.498;12.138;2022-09-12T01:10:08;12.60;99.90
14783;DHT22;7483;50.498;12.138;2022-09-12T01:12:38;12.50;99.90
14783;DHT22;7483;50.498;12.138;2022-09-12T01:15:07;12.40;99.90
14783;DHT22;7483;50.498;12.138;2022-09-12T01:17:45;12.40;99.90
14783;DHT22;7483;50.498;12.138;2022-09-12T01:20:42;12.40;99.90
14783;DHT22;7483;50.498;12.138;2022-09-12T01:26:58;12.40;99.90
14783;DHT22;7483;50.498;12.138;2022-09-12T01:29:43;12.40;99.90
14783;DHT22;7483;50.498;12.138;2022-09-12T01:32:22;12.40;99.90
14783;DHT22;7483;50.498;12.138;2022-09-12T01:35:00;12.20;99.90
14783;DHT22;7483;50.498;12.138;2022-09-12T01:37:36;12.20;99.90
14783;DHT22;7483;50.498;12.138;2022-09-12T01:40:09;12.30;99.90
14783;DHT22;7483;50.498;12.138;2022-09-12T01:42:44;12.20;99.90
14783;DHT22;7483;50.498;12.138;2022-09-12T01:45:17;12.20;99.90
14783;DHT22;7483;50.498;12.138;2022-09-12T01:47:51;12.30;99.90
14783;DHT22;7483;50.498;12.138;2022-09-12T01:50:23;12.20;99.90
14783;DHT22;7483;50.498;12.138;2022-09-12T01:52:54;12.10;99.90
14783;DHT22;7483;50.498;12.138;2022-09-12T01:55:26;12.10;99.90
14783;DHT22;7483;50.498;12.138;2022-09-12T01:57:59;12.10;99.90
14783;DHT22;7483;50.498;12.138;2022-09-12T02:00:31;12.00;99.90
14783;DHT22;7483;50.498;12.138;2022-09-12T02:03:03;12.00;99.90
14783;DHT22;7483;50.498;12.138;2022-09-12T02:05:37;12.10;99.90
14783;DHT22;7483;50.498;12.138;2022-09-12T02:08:09;12.10;99.90
14783;DHT22;7483;50.498;12.138;2022-09-12T02:10:42;12.00;99.90
14783;DHT22;7483;50.498;12.138;2022-09-12T02:13:18;12.00;99.90
14783;DHT22;7483;50.498;12.138;2022-09-12T02:15:51;11.90;99.90
14783;DHT22;7483;50.498;12.138;2022-09-12T02:18:24;11.90;99.90
14783;DHT22;7483;50.498;12.138;2022-09-12T02:20:54;11.90;99.90
14783;DHT22;7483;50.498;12.138;2022-09-12T02:23:26;11.80;99.90
14783;DHT22;7483;50.498;12.138;2022-09-12T02:25:56;11.80;99.90
14783;DHT22;7483;50.498;12.138;2022-09-12T02:28:29;11.80;99.90
14783;DHT22;7483;50.498;12.138;2022-09-12T02:31:03;11.80;99.90
14783;DHT22;7483;50.498;12.138;2022-09-12T02:33:43;11.80;99.90
14783;DHT22;7483;50.498;12.138;2022-09-12T02:36:16;11.70;99.90
14783;DHT22;7483;50.498;12.138;2022-09-12T02:38:50;11.80;99.90
14783;DHT22;7483;50.498;12.138;2022-09-12T02:41:19;11.80;99.90
14783;DHT22;7483;50.498;12.138;2022-09-12T02:43:48;11.70;99.90
14783;DHT22;7483;50.498;12.138;2022-09-12T02:46:20;11.70;99.90
14783;DHT22;7483;50.498;12.138;2022-09-12T02:48:50;11.70;99.90
14783;DHT22;7483;50.498;12.138;2022-09-12T02:51:18;11.70;99.90
14783;DHT22;7483;50.498;12.138;2022-09-12T02:53:50;11.70;99.90
14783;DHT22;7483;50.498;12.138;2022-09-12T02:56:22;11.70;99.90
14783;DHT22;7483;50.498;12.138;2022-09-12T02:58:52;11.60;99.90
14783;DHT22;7483;50.498;12.138;2022-09-12T03:01:29;11.60;99.90
14783;DHT22;7483;50.498;12.138;2022-09-12T03:04:14;11.60;99.90
14783;DHT22;7483;50.498;12.138;2022-09-12T03:06:51;11.60;99.90
14783;DHT22;7483;50.498;12.138;2022-09-12T03:09:29;11.60;99.90
14783;DHT22;7483;50.498;12.138;2022-09-12T03:12:09;11.60;99.90
14783;DHT22;7483;50.498;12.138;2022-09-12T03:15:01;11.60;99.90
14783;DHT22;7483;50.498;12.138;2022-09-12T03:17:41;11.50;99.90
14783;DHT22;7483;50.498;12.138;2022-09-12T03:20:14;11.50;99.90
14783;DHT22;7483;50.498;12.138;2022-09-12T03:22:51;11.40;99.90
14783;DHT22;7483;50.498;12.138;2022-09-12T03:25:22;11.40;99.90
14783;DHT22;7483;50.498;12.138;2022-09-12T03:27:57;11.50;99.90
14783;DHT22;7483;50.498;12.138;2022-09-12T03:30:26;11.50;99.90
14783;DHT22;7483;50.498;12.138;2022-09-12T03:32:54;11.60;99.90
14783;DHT22;7483;50.498;12.138;2022-09-12T03:35:24;11.70;99.90
14783;DHT22;7483;50.498;12.138;2022-09-12T03:37:52;11.60;99.90
14783;DHT22;7483;50.498;12.138;2022-09-12T03:40:20;11.60;99.90
14783;DHT22;7483;50.498;12.138;2022-09-12T03:42:48;11.50;99.90
14783;DHT22;7483;50.498;12.138;2022-09-12T03:45:16;11.40;99.90
14783;DHT22;7483;50.498;12.138;2022-09-12T03:47:43;11.40;99.90
14783;DHT22;7483;50.498;12.138;2022-09-12T03:50:11;11.30;99.90
14783;DHT22;7483;50.498;12.138;2022-09-12T03:52:42;11.30;99.90
14783;DHT22;7483;50.498;12.138;2022-09-12T03:55:10;11.30;99.90
14783;DHT22;7483;50.498;12.138;2022-09-12T03:57:38;11.30;99.90
14783;DHT22;7483;50.498;12.138;2022-09-12T04:00:07;11.20;99.90
14783;DHT22;7483;50.498;12.138;2022-09-12T04:02:38;11.20;99.90
14783;DHT22;7483;50.498;12.138;2022-09-12T04:05:06;11.20;99.90
14783;DHT22;7483;50.498;12.138;2022-09-12T04:07:34;11.30;99.90
14783;DHT22;7483;50.498;12.138;2022-09-12T04:10:04;11.30;99.90
14783;DHT22;7483;50.498;12.138;2022-09-12T04:12:32;11.40;99.90
14783;DHT22;7483;50.498;12.138;2022-09-12T04:15:01;11.40;99.90
14783;DHT22;7483;50.498;12.138;2022-09-12T04:17:29;11.30;99.90
14783;DHT22;7483;50.498;12.138;2022-09-12T04:19:56;11.30;99.90
14783;DHT22;7483;50.498;12.138;2022-09-12T04:22:24;11.30;99.90
14783;DHT22;7483;50.498;12.138;2022-09-12T04:24:52;11.30;99.90
14783;DHT22;7483;50.498;12.138;2022-09-12T04:27:21;11.30;99.90
14783;DHT22;7483;50.498;12.138;2022-09-12T04:29:49;11.30;99.90
14783;DHT22;7483;50.498;12.138;2022-09-12T04:32:17;11.30;99.90
14783;DHT22;7483;50.498;12.138;2022-09-12T04:34:45;11.40;99.90
14783;DHT22;7483;50.498;12.138;2022-09-12T04:37:13;11.50;99.90
14783;DHT22;7483;50.498;12.138;2022-09-12T04:39:42;11.40;99.90
14783;DHT22;7483;50.498;12.138;2022-09-12T04:42:10;11.50;99.90
14783;DHT22;7483;50.498;12.138;2022-09-12T04:44:39;11.30;99.90
14783;DHT22;7483;50.498;12.138;2022-09-12T04:47:07;11.30;99.90
14783;DHT22;7483;50.498;12.138;2022-09-12T04:49:35;11.20;99.90
14783;DHT22;7483;50.498;12.138;2022-09-12T04:52:03;11.20;99.90
14783;DHT22;7483;50.498;12.138;2022-09-12T04:54:31;11.10;99.90
14783;DHT22;7483;50.498;12.138;2022-09-12T04:56:59;11.00;99.90
14783;DHT22;7483;50.498;12.138;2022-09-12T04:59:27;11.10;99.90
14783;DHT22;7483;50.498;12.138;2022-09-12T05:01:56;11.00;99.90
14783;DHT22;7483;50.498;12.138;2022-09-12T05:04:24;11.00;99.90
14783;DHT22;7483;50.498;12.138;2022-09-12T05:06:52;11.00;99.90
14783;DHT22;7483;50.498;12.138;2022-09-12T05:09:20;11.10;99.90
14783;DHT22;7483;50.498;12.138;2022-09-12T05:11:48;11.10;99.90
14783;DHT22;7483;50.498;12.138;2022-09-12T05:14:32;11.10;99.90
14783;DHT22;7483;50.498;12.138;2022-09-12T05:17:03;11.10;99.90
14783;DHT22;7483;50.498;12.138;2022-09-12T05:19:34;11.20;99.90
14783;DHT22;7483;50.498;12.138;2022-09-12T05:22:02;11.10;99.90
14783;DHT22;7483;50.498;12.138;2022-09-12T05:24:33;11.10;99.90
14783;DHT22;7483;50.498;12.138;2022-09-12T05:27:01;11.10;99.90
14783;DHT22;7483;50.498;12.138;2022-09-12T05:29:32;11.20;99.90
14783;DHT22;7483;50.498;12.138;2022-09-12T05:32:02;11.20;99.90
14783;DHT22;7483;50.498;12.138;2022-09-12T05:34:30;11.30;99.90
14783;DHT22;7483;50.498;12.138;2022-09-12T05:36:58;11.40;99.90
14783;DHT22;7483;50.498;12.138;2022-09-12T05:39:25;11.50;99.90
14783;DHT22;7483;50.498;12.138;2022-09-12T05:41:53;11.40;99.90
14783;DHT22;7483;50.498;12.138;2022-09-12T05:44:21;11.40;99.90
14783;DHT22;7483;50.498;12.138;2022-09-12T05:46:50;11.50;99.90
14783;DHT22;7483;50.498;12.138;2022-09-12T05:49:20;11.50;99.90
14783;DHT22;7483;50.498;12.138;2022-09-12T05:51:48;11.50;99.90
14783;DHT22;7483;50.498;12.138;2022-09-12T05:54:17;11.40;99.90
14783;DHT22;7483;50.498;12.138;2022-09-12T05:56:46;11.40;99.90
14783;DHT22;7483;50.498;12.138;2022-09-12T05:59:19;11.50;99.90
14783;DHT22;7483;50.498;12.138;2022-09-12T06:01:47;11.50;99.90
14783;DHT22;7483;50.498;12.138;2022-09-12T06:04:16;11.50;99.90
14783;DHT22;7483;50.498;12.138;2022-09-12T06:06:45;11.40;99.90
14783;DHT22;7483;50.498;12.138;2022-09-12T06:09:15;11.30;99.90
14783;DHT22;7483;50.498;12.138;2022-09-12T06:11:44;11.40;99.90
14783;DHT22;7483;50.498;12.138;2022-09-12T06:14:14;11.40;99.90
14783;DHT22;7483;50.498;12.138;2022-09-12T06:16:42;11.30;99.90
14783;DHT22;7483;50.498;12.138;2022-09-12T06:19:13;11.40;99.90
14783;DHT22;7483;50.498;12.138;2022-09-12T06:21:42;11.40;99.90
14783;DHT22;7483;50.498;12.138;2022-09-12T06:24:11;11.50;99.90
14783;DHT22;7483;50.498;12.138;2022-09-12T06:26:39;11.50;99.90
14783;DHT22;7483;50.498;12.138;2022-09-12T06:29:09;11.50;99.90
14783;DHT22;7483;50.498;12.138;2022-09-12T06:31:38;11.60;99.90
14783;DHT22;7483;50.498;12.138;2022-09-12T06:34:09;11.50;99.90
14783;DHT22;7483;50.498;12.138;2022-09-12T06:36:40;11.60;99.90
14783;DHT22;7483;50.498;12.138;2022-09-12T06:39:11;11.70;99.90
14783;DHT22;7483;50.498;12.138;2022-09-12T06:41:39;11.70;99.90
14783;DHT22;7483;50.498;12.138;2022-09-12T06:44:11;11.70;99.90
14783;DHT22;7483;50.498;12.138;2022-09-12T06:46:41;11.70;99.90
14783;DHT22;7483;50.498;12.138;2022-09-12T06:49:09;11.70;99.90
14783;DHT22;7483;50.498;12.138;2022-09-12T06:51:37;11.80;99.90
14783;DHT22;7483;50.498;12.138;2022-09-12T06:54:08;11.80;99.90
14783;DHT22;7483;50.498;12.138;2022-09-12T06:56:40;11.70;99.90
14783;DHT22;7483;50.498;12.138;2022-09-12T06:59:07;11.80;99.90
14783;DHT22;7483;50.498;12.138;2022-09-12T07:01:35;11.80;99.90
14783;DHT22;7483;50.498;12.138;2022-09-12T07:04:03;11.80;99.90
14783;DHT22;7483;50.498;12.138;2022-09-12T07:06:36;11.80;99.90
14783;DHT22;7483;50.498;12.138;2022-09-12T07:09:06;11.90;99.90
14783;DHT22;7483;50.498;12.138;2022-09-12T07:11:36;12.10;99.90
14783;DHT22;7483;50.498;12.138;2022-09-12T07:14:07;12.20;99.90
14783;DHT22;7483;50.498;12.138;2022-09-12T07:16:35;12.20;99.90
14783;DHT22;7483;50.498;12.138;2022-09-12T07:19:05;12.10;99.90
14783;DHT22;7483;50.498;12.138;2022-09-12T07:21:33;12.20;99.90
14783;DHT22;7483;50.498;12.138;2022-09-12T07:24:06;12.10;99.90
14783;DHT22;7483;50.498;12.138;2022-09-12T07:26:35;12.30;99.90
14783;DHT22;7483;50.498;12.138;2022-09-12T07:29:03;12.40;99.90
14783;DHT22;7483;50.498;12.138;2022-09-12T07:31:52;12.40;99.90
14783;DHT22;7483;50.498;12.138;2022-09-12T07:34:20;12.50;99.90
14783;DHT22;7483;50.498;12.138;2022-09-12T07:36:48;12.60;99.90
14783;DHT22;7483;50.498;12.138;2022-09-12T07:39:16;12.70;99.90
14783;DHT22;7483;50.498;12.138;2022-09-12T07:41:43;12.90;99.90
14783;DHT22;7483;50.498;12.138;2022-09-12T07:44:11;13.00;99.90
14783;DHT22;7483;50.498;12.138;2022-09-12T07:46:39;13.00;99.90
14783;DHT22;7483;50.498;12.138;2022-09-12T07:49:10;13.00;99.90
14783;DHT22;7483;50.498;12.138;2022-09-12T07:51:38;13.00;99.90
14783;DHT22;7483;50.498;12.138;2022-09-12T07:54:07;13.10;99.90
14783;DHT22;7483;50.498;12.138;2022-09-12T07:56:35;13.10;99.90
14783;DHT22;7483;50.498;12.138;2022-09-12T07:59:05;13.20;99.90
14783;DHT22;7483;50.498;12.138;2022-09-12T08:01:33;13.20;99.90
14783;DHT22;7483;50.498;12.138;2022-09-12T08:04:02;13.30;99.90
14783;DHT22;7483;50.498;12.138;2022-09-12T08:06:32;13.30;99.90
14783;DHT22;7483;50.498;12.138;2022-09-12T08:09:02;13.30;99.90
14783;DHT22;7483;50.498;12.138;2022-09-12T08:11:30;13.40;99.90
14783;DHT22;7483;50.498;12.138;2022-09-12T08:13:58;13.50;99.90
14783;DHT22;7483;50.498;12.138;2022-09-12T08:16:30;13.60;99.90
14783;DHT22;7483;50.498;12.138;2022-09-12T08:18:59;13.60;99.90
14783;DHT22;7483;50.498;12.138;2022-09-12T08:21:29;13.80;99.90
14783;DHT22;7483;50.498;12.138;2022-09-12T08:24:00;13.90;99.90
14783;DHT22;7483;50.498;12.138;2022-09-12T08:26:30;14.00;99.90
14783;DHT22;7483;50.498;12.138;2022-09-12T08:28:58;14.10;99.90
14783;DHT22;7483;50.498;12.138;2022-09-12T08:31:27;14.10;99.90
14783;DHT22;7483;50.498;12.138;2022-09-12T08:33:55;14.30;99.90
14783;DHT22;7483;50.498;12.138;2022-09-12T08:36:25;14.20;99.90
14783;DHT22;7483;50.498;12.138;2022-09-12T08:38:54;14.30;99.90
14783;DHT22;7483;50.498;12.138;2022-09-12T08:41:30;14.30;99.90
14783;DHT22;7483;50.498;12.138;2022-09-12T08:44:30;14.40;99.90
14783;DHT22;7483;50.498;12.138;2022-09-12T08:47:18;14.60;99.90
14783;DHT22;7483;50.498;12.138;2022-09-12T08:49:53;14.50;99.90
14783;DHT22;7483;50.498;12.138;2022-09-12T08:52:28;14.70;99.90
14783;DHT22;7483;50.498;12.138;2022-09-12T08:54:57;14.80;99.90
14783;DHT22;7483;50.498;12.138;2022-09-12T08:57:27;14.80;99.90
14783;DHT22;7483;50.498;12.138;2022-09-12T08:59:55;14.80;99.90
14783;DHT22;7483;50.498;12.138;2022-09-12T09:02:36;14.90;99.90
14783;DHT22;7483;50.498;12.138;2022-09-12T09:05:15;15.00;99.90
14783;DHT22;7483;50.498;12.138;2022-09-12T09:08:00;15.10;99.90
14783;DHT22;7483;50.498;12.138;2022-09-12T09:10:36;15.20;99.90
14783;DHT22;7483;50.498;12.138;2022-09-12T09:13:15;15.30;99.90
14783;DHT22;7483;50.498;12.138;2022-09-12T09:16:09;15.50;99.90
14783;DHT22;7483;50.498;12.138;2022-09-12T09:18:40;15.60;99.90
14783;DHT22;7483;50.498;12.138;2022-09-12T09:21:18;15.70;99.90
14783;DHT22;7483;50.498;12.138;2022-09-12T09:23:50;15.80;99.90
14783;DHT22;7483;50.498;12.138;2022-09-12T09:26:22;15.80;99.90
14783;DHT22;7483;50.498;12.138;2022-09-12T09:28:58;15.90;99.90
14783;DHT22;7483;50.498;12.138;2022-09-12T09:31:33;16.10;99.90
14783;DHT22;7483;50.498;12.138;2022-09-12T09:34:12;16.20;99.90
14783;DHT22;7483;50.498;12.138;2022-09-12T09:36:48;16.30;99.90
14783;DHT22;7483;50.498;12.138;2022-09-12T09:39:32;16.50;99.90
14783;DHT22;7483;50.498;12.138;2022-09-12T09:42:12;16.50;99.90
14783;DHT22;7483;50.498;12.138;2022-09-12T09:44:45;16.70;99.90
14783;DHT22;7483;50.498;12.138;2022-09-12T09:47:17;16.80;99.90
14783;DHT22;7483;50.498;12.138;2022-09-12T09:49:46;16.80;99.90
14783;DHT22;7483;50.498;12.138;2022-09-12T09:52:15;17.00;99.90
14783;DHT22;7483;50.498;12.138;2022-09-12T09:54:46;17.10;99.90
14783;DHT22;7483;50.498;12.138;2022-09-12T09:57:39;17.30;99.90
14783;DHT22;7483;50.498;12.138;2022-09-12T10:00:23;17.40;99.90
14783;DHT22;7483;50.498;12.138;2022-09-12T10:03:02;17.50;99.90
14783;DHT22;7483;50.498;12.138;2022-09-12T10:05:33;17.50;99.90
14783;DHT22;7483;50.498;12.138;2022-09-12T10:08:02;17.70;99.90
14783;DHT22;7483;50.498;12.138;2022-09-12T10:10:32;17.80;99.90
14783;DHT22;7483;50.498;12.138;2022-09-12T10:13:07;17.90;99.90
14783;DHT22;7483;50.498;12.138;2022-09-12T10:15:37;18.10;99.90
14783;DHT22;7483;50.498;12.138;2022-09-12T10:18:07;18.20;99.90
14783;DHT22;7483;50.498;12.138;2022-09-12T10:20:38;18.30;99.90
14783;DHT22;7483;50.498;12.138;2022-09-12T10:23:21;18.40;99.90
14783;DHT22;7483;50.498;12.138;2022-09-12T10:25:53;18.50;99.90
14783;DHT22;7483;50.498;12.138;2022-09-12T10:28:24;18.70;99.90
14783;DHT22;7483;50.498;12.138;2022-09-12T10:30:58;18.70;99.90
14783;DHT22;7483;50.498;12.138;2022-09-12T10:33:29;18.70;99.90
14783;DHT22;7483;50.498;12.138;2022-09-12T10:35:57;18.80;99.90
14783;DHT22;7483;50.498;12.138;2022-09-12T10:38:27;19.00;99.90
14783;DHT22;7483;50.498;12.138;2022-09-12T10:40:59;19.10;99.90
14783;DHT22;7483;50.498;12.138;2022-09-12T10:43:29;19.20;99.90
14783;DHT22;7483;50.498;12.138;2022-09-12T10:46:25;19.30;99.90
14783;DHT22;7483;50.498;12.138;2022-09-12T10:49:13;19.50;99.90
14783;DHT22;7483;50.498;12.138;2022-09-12T10:51:41;19.60;99.90
14783;DHT22;7483;50.498;12.138;2022-09-12T10:54:09;19.80;99.90
14783;DHT22;7483;50.498;12.138;2022-09-12T10:56:43;20.00;99.90
14783;DHT22;7483;50.498;12.138;2022-09-12T10:59:24;20.10;99.90
14783;DHT22;7483;50.498;12.138;2022-09-12T11:01:57;20.40;99.90
14783;DHT22;7483;50.498;12.138;2022-09-12T11:04:32;20.50;99.90
14783;DHT22;7483;50.498;12.138;2022-09-12T11:07:17;20.60;99.90
14783;DHT22;7483;50.498;12.138;2022-09-12T11:09:53;20.70;99.90
14783;DHT22;7483;50.498;12.138;2022-09-12T11:12:32;20.70;99.90
14783;DHT22;7483;50.498;12.138;2022-09-12T11:15:20;20.80;99.90
14783;DHT22;7483;50.498;12.138;2022-09-12T11:17:57;21.10;99.90
14783;DHT22;7483;50.498;12.138;2022-09-12T11:20:58;21.30;99.90
14783;DHT22;7483;50.498;12.138;2022-09-12T11:23:53;21.40;99.90
14783;DHT22;7483;50.498;12.138;2022-09-12T11:26:36;21.60;99.90
14783;DHT22;7483;50.498;12.138;2022-09-12T11:29:12;21.90;99.90
14783;DHT22;7483;50.498;12.138;2022-09-12T11:31:55;22.20;99.90
14783;DHT22;7483;50.498;12.138;2022-09-12T11:34:33;22.10;99.90
14783;DHT22;7483;50.498;12.138;2022-09-12T11:37:18;22.40;99.90
14783;DHT22;7483;50.498;12.138;2022-09-12T11:39:50;22.60;99.90
14783;DHT22;7483;50.498;12.138;2022-09-12T11:42:25;22.40;99.90
14783;DHT22;7483;50.498;12.138;2022-09-12T11:45:01;22.50;99.90
14783;DHT22;7483;50.498;12.138;2022-09-12T11:47:33;22.70;99.90
14783;DHT22;7483;50.498;12.138;2022-09-12T11:50:05;22.80;99.90
14783;DHT22;7483;50.498;12.138;2022-09-12T11:52:41;22.80;99.90
14783;DHT22;7483;50.498;12.138;2022-09-12T11:55:15;23.00;99.90
14783;DHT22;7483;50.498;12.138;2022-09-12T11:57:47;23.10;99.90
14783;DHT22;7483;50.498;12.138;2022-09-12T12:00:18;23.20;99.90
14783;DHT22;7483;50.498;12.138;2022-09-12T12:02:54;23.30;99.90
14783;DHT22;7483;50.498;12.138;2022-09-12T12:05:28;23.30;99.90
14783;DHT22;7483;50.498;12.138;2022-09-12T12:07:58;23.30;99.90
14783;DHT22;7483;50.498;12.138;2022-09-12T12:10:34;23.30;99.90
14783;DHT22;7483;50.498;12.138;2022-09-12T12:13:04;23.50;99.90
14783;DHT22;7483;50.498;12.138;2022-09-12T12:15:44;23.70;99.90
14783;DHT22;7483;50.498;12.138;2022-09-12T12:18:16;23.90;99.90
14783;DHT22;7483;50.498;12.138;2022-09-12T12:20:46;24.10;99.90
14783;DHT22;7483;50.498;12.138;2022-09-12T12:23:28;23.80;99.90
14783;DHT22;7483;50.498;12.138;2022-09-12T12:25:58;23.90;99.90
14783;DHT22;7483;50.498;12.138;2022-09-12T12:28:57;23.90;99.90
14783;DHT22;7483;50.498;12.138;2022-09-12T12:31:25;23.90;99.90
14783;DHT22;7483;50.498;12.138;2022-09-12T12:34:19;23.80;99.90
14783;DHT22;7483;50.498;12.138;2022-09-12T12:36:49;23.80;99.90
14783;DHT22;7483;50.498;12.138;2022-09-12T12:49:05;23.10;99.90
14783;DHT22;7483;50.498;12.138;2022-09-12T12:57:44;23.10;99.90
14783;DHT22;7483;50.498;12.138;2022-09-12T13:00:32;23.10;99.90
14783;DHT22;7483;50.498;12.138;2022-09-12T13:03:08;23.00;99.90
14783;DHT22;7483;50.498;12.138;2022-09-12T13:05:39;23.00;99.90
14783;DHT22;7483;50.498;12.138;2022-09-12T13:08:10;23.00;99.90
14783;DHT22;7483;50.498;12.138;2022-09-12T13:10:38;23.00;99.90
14783;DHT22;7483;50.498;12.138;2022-09-12T13:13:22;23.00;99.90
14783;DHT22;7483;50.498;12.138;2022-09-12T13:15:52;23.00;99.90
14783;DHT22;7483;50.498;12.138;2022-09-12T13:18:25;23.00;99.90
14783;DHT22;7483;50.498;12.138;2022-09-12T13:20:59;22.90;99.90
14783;DHT22;7483;50.498;12.138;2022-09-12T13:23:31;23.00;99.90
14783;DHT22;7483;50.498;12.138;2022-09-12T13:26:00;23.00;99.90
14783;DHT22;7483;50.498;12.138;2022-09-12T13:28:30;23.00;99.90
14783;DHT22;7483;50.498;12.138;2022-09-12T13:31:00;23.00;99.90
14783;DHT22;7483;50.498;12.138;2022-09-12T13:33:34;23.00;99.90
14783;DHT22;7483;50.498;12.138;2022-09-12T13:36:19;23.00;99.90
14783;DHT22;7483;50.498;12.138;2022-09-12T13:38:58;22.90;99.90
14783;DHT22;7483;50.498;12.138;2022-09-12T13:41:38;22.90;99.90
14783;DHT22;7483;50.498;12.138;2022-09-12T13:44:11;22.80;99.90
14783;DHT22;7483;50.498;12.138;2022-09-12T13:46:41;22.20;99.90
14783;DHT22;7483;50.498;12.138;2022-09-12T13:49:17;21.80;99.90
14783;DHT22;7483;50.498;12.138;2022-09-12T13:51:53;21.70;99.90
14783;DHT22;7483;50.498;12.138;2022-09-12T13:54:24;21.80;99.90
14783;DHT22;7483;50.498;12.138;2022-09-12T13:56:52;22.00;99.90
14783;DHT22;7483;50.498;12.138;2022-09-12T13:59:22;22.10;99.90
14783;DHT22;7483;50.498;12.138;2022-09-12T14:01:50;22.20;99.90
14783;DHT22;7483;50.498;12.138;2022-09-12T14:04:20;22.20;99.90
14783;DHT22;7483;50.498;12.138;2022-09-12T14:07:11;22.00;99.90
14783;DHT22;7483;50.498;12.138;2022-09-12T14:09:42;22.10;99.90
14783;DHT22;7483;50.498;12.138;2022-09-12T14:12:18;22.20;99.90
14783;DHT22;7483;50.498;12.138;2022-09-12T14:14:52;22.20;99.90
14783;DHT22;7483;50.498;12.138;2022-09-12T14:17:24;22.20;99.90
14783;DHT22;7483;50.498;12.138;2022-09-12T14:19:55;22.30;99.90
14783;DHT22;7483;50.498;12.138;2022-09-12T14:22:25;22.20;99.90
14783;DHT22;7483;50.498;12.138;2022-09-12T14:24:56;22.20;99.90
14783;DHT22;7483;50.498;12.138;2022-09-12T14:27:26;22.30;99.90
14783;DHT22;7483;50.498;12.138;2022-09-12T14:30:00;22.30;99.90
14783;DHT22;7483;50.498;12.138;2022-09-12T14:32:30;22.30;99.90
14783;DHT22;7483;50.498;12.138;2022-09-12T14:35:06;22.30;99.90
14783;DHT22;7483;50.498;12.138;2022-09-12T14:37:34;22.30;99.90
14783;DHT22;7483;50.498;12.138;2022-09-12T14:40:02;22.20;99.90
14783;DHT22;7483;50.498;12.138;2022-09-12T14:42:31;22.10;99.90
14783;DHT22;7483;50.498;12.138;2022-09-12T14:45:09;22.10;99.90
14783;DHT22;7483;50.498;12.138;2022-09-12T14:47:41;21.90;99.90
14783;DHT22;7483;50.498;12.138;2022-09-12T14:50:16;21.90;99.90
14783;DHT22;7483;50.498;12.138;2022-09-12T14:52:43;21.90;99.90
14783;DHT22;7483;50.498;12.138;2022-09-12T14:55:21;22.00;99.90
14783;DHT22;7483;50.498;12.138;2022-09-12T14:58:05;22.00;99.90
14783;DHT22;7483;50.498;12.138;2022-09-12T15:00:35;22.00;99.90
14783;DHT22;7483;50.498;12.138;2022-09-12T15:03:26;22.10;99.90
14783;DHT22;7483;50.498;12.138;2022-09-12T15:05:54;22.10;99.90
14783;DHT22;7483;50.498;12.138;2022-09-12T15:08:23;22.10;99.90
14783;DHT22;7483;50.498;12.138;2022-09-12T15:10:51;22.20;99.90
14783;DHT22;7483;50.498;12.138;2022-09-12T15:13:21;22.10;99.90
14783;DHT22;7483;50.498;12.138;2022-09-12T15:15:52;22.10;99.90
14783;DHT22;7483;50.498;12.138;2022-09-12T15:18:21;22.10;99.90
14783;DHT22;7483;50.498;12.138;2022-09-12T15:20:51;22.20;99.90
14783;DHT22;7483;50.498;12.138;2022-09-12T15:23:28;22.20;99.90
14783;DHT22;7483;50.498;12.138;2022-09-12T15:25:57;22.30;99.90
14783;DHT22;7483;50.498;12.138;2022-09-12T15:28:26;22.30;99.90
14783;DHT22;7483;50.498;12.138;2022-09-12T15:30:55;22.30;99.90
14783;DHT22;7483;50.498;12.138;2022-09-12T15:33:24;22.10;99.90
14783;DHT22;7483;50.498;12.138;2022-09-12T15:35:52;22.10;99.90
14783;DHT22;7483;50.498;12.138;2022-09-12T15:38:20;22.10;99.90
14783;DHT22;7483;50.498;12.138;2022-09-12T15:40:52;22.10;99.90
14783;DHT22;7483;50.498;12.138;2022-09-12T15:43:21;22.10;99.90
14783;DHT22;7483;50.498;12.138;2022-09-12T15:45:49;22.20;99.90
14783;DHT22;7483;50.498;12.138;2022-09-12T15:48:19;22.10;99.90
14783;DHT22;7483;50.498;12.138;2022-09-12T15:50:47;22.10;99.90
14783;DHT22;7483;50.498;12.138;2022-09-12T15:53:16;22.10;99.90
14783;DHT22;7483;50.498;12.138;2022-09-12T15:55:44;22.00;99.90
14783;DHT22;7483;50.498;12.138;2022-09-12T15:58:12;21.60;99.90
14783;DHT22;7483;50.498;12.138;2022-09-12T16:00:39;21.40;99.90
14783;DHT22;7483;50.498;12.138;2022-09-12T16:03:14;21.20;99.90
14783;DHT22;7483;50.498;12.138;2022-09-12T16:05:45;21.20;99.90
14783;DHT22;7483;50.498;12.138;2022-09-12T16:08:13;21.20;99.90
14783;DHT22;7483;50.498;12.138;2022-09-12T16:10:42;21.10;99.90
14783;DHT22;7483;50.498;12.138;2022-09-12T16:13:10;21.10;99.90
14783;DHT22;7483;50.498;12.138;2022-09-12T16:15:38;21.20;99.90
14783;DHT22;7483;50.498;12.138;2022-09-12T16:18:06;21.30;99.90
14783;DHT22;7483;50.498;12.138;2022-09-12T16:20:34;21.30;99.90